sensor_id;sensor_type;location;lat;lon;timestamp;temperature;humidity
1015;DHT22;8170;48.118;11.628;2023-04-23T00:00:48;14.80;90.50
1015;DHT22;8170;48.118;11.628;2023-04-23T00:01:58;14.80;90.40
1015;DHT22;8170;48.118;11.628;2023-04-23T00:03:05;14.80;90.10
1015;DHT22;8170;48.118;11.628;2023-04-23T00:04:11;14.80;90.00
1015;DHT22;8170;48.118;11.628;2023-04-23T00:05:16;14.70;90.30
1015;DHT22;8170;48.118;11.628;2023-04-23T00:06:19;14.70;90.50
1015;DHT22;8170;48.118;11.628;2023-04-23T00:07:24;14.70;90.70
1015;DHT22;8170;48.118;11.628;2023-04-23T00:08:29;14.70;90.70
1015;DHT22;8170;48.118;11.628;2023-04-23T00:09:33;14.70;90.50
1015;DHT22;8170;48.118;11.628;2023-04-23T00:10:37;14.70;90.40
1015;DHT22;8170;48.118;11.628;2023-04-23T00:11:40;14.80;90.40
1015;DHT22;8170;48.118;11.628;2023-04-23T00:12:43;14.80;90.30
1015;DHT22;8170;48.118;11.628;2023-04-23T00:13:46;14.80;90.20
1015;DHT22;8170;48.118;11.628;2023-04-23T00:14:50;14.80;90.20
1015;DHT22;8170;48.118;11.628;2023-04-23T00:15:53;14.70;90.10
1015;DHT22;8170;48.118;11.628;2023-04-23T00:16:56;14.80;90.00
1015;DHT22;8170;48.118;11.628;2023-04-23T00:17:58;14.80;89.90
1015;DHT22;8170;48.118;11.628;2023-04-23T00:19:01;14.80;90.00
1015;DHT22;8170;48.118;11.628;2023-04-23T00:20:05;14.80;90.10
1015;DHT22;8170;48.118;11.628;2023-04-23T00:21:08;14.80;90.40
1015;DHT22;8170;48.118;11.628;2023-04-23T00:22:12;14.70;90.30
1015;DHT22;8170;48.118;11.628;2023-04-23T00:23:17;14.70;90.30
1015;DHT22;8170;48.118;11.628;2023-04-23T00:24:19;14.70;90.40
1015;DHT22;8170;48.118;11.628;2023-04-23T00:25:24;14.70;90.70
1015;DHT22;8170;48.118;11.628;2023-04-23T00:26:26;14.70;90.50
1015;DHT22;8170;48.118;11.628;2023-04-23T00:27:29;14.70;90.50
1015;DHT22;8170;48.118;11.628;2023-04-23T00:28:31;14.70;90.20
1015;DHT22;8170;48.118;11.628;2023-04-23T00:29:34;14.70;90.30
1015;DHT22;8170;48.118;11.628;2023-04-23T00:30:36;14.60;90.40
1015;DHT22;8170;48.118;11.628;2023-04-23T00:31:39;14.60;90.60
1015;DHT22;8170;48.118;11.628;2023-04-23T00:32:41;14.50;91.50
1015;DHT22;8170;48.118;11.628;2023-04-23T00:33:46;14.50;92.10
1015;DHT22;8170;48.118;11.628;2023-04-23T00:34:50;14.50;92.50
1015;DHT22;8170;48.118;11.628;2023-04-23T00:35:53;14.50;93.20
1015;DHT22;8170;48.118;11.628;2023-04-23T00:36:55;14.50;93.70
1015;DHT22;8170;48.118;11.628;2023-04-23T00:37:58;14.50;93.70
1015;DHT22;8170;48.118;11.628;2023-04-23T00:39:02;14.50;93.40
1015;DHT22;8170;48.118;11.628;2023-04-23T00:40:06;14.50;93.20
1015;DHT22;8170;48.118;11.628;2023-04-23T00:41:09;14.60;93.60
1015;DHT22;8170;48.118;11.628;2023-04-23T00:42:12;14.50;93.00
1015;DHT22;8170;48.118;11.628;2023-04-23T00:43:14;14.50;93.90
1015;DHT22;8170;48.118;11.628;2023-04-23T00:44:18;14.50;94.40
1015;DHT22;8170;48.118;11.628;2023-04-23T00:45:20;14.50;94.60
1015;DHT22;8170;48.118;11.628;2023-04-23T00:46:24;14.50;94.30
1015;DHT22;8170;48.118;11.628;2023-04-23T00:47:28;14.50;94.60
1015;DHT22;8170;48.118;11.628;2023-04-23T00:48:32;14.60;94.70
1015;DHT22;8170;48.118;11.628;2023-04-23T00:49:34;14.50;94.60
1015;DHT22;8170;48.118;11.628;2023-04-23T00:50:37;14.60;94.60
1015;DHT22;8170;48.118;11.628;2023-04-23T00:51:40;14.60;94.80
1015;DHT22;8170;48.118;11.628;2023-04-23T00:52:43;14.60;94.90
1015;DHT22;8170;48.118;11.628;2023-04-23T00:53:45;14.60;95.00
1015;DHT22;8170;48.118;11.628;2023-04-23T00:54:49;14.60;94.90
1015;DHT22;8170;48.118;11.628;2023-04-23T00:55:51;14.60;94.90
1015;DHT22;8170;48.118;11.628;2023-04-23T00:56:55;14.60;95.40
1015;DHT22;8170;48.118;11.628;2023-04-23T00:57:58;14.50;95.60
1015;DHT22;8170;48.118;11.628;2023-04-23T00:59:02;14.50;96.20
1015;DHT22;8170;48.118;11.628;2023-04-23T01:00:05;14.50;96.50
1015;DHT22;8170;48.118;11.628;2023-04-23T01:01:08;14.40;96.50
1015;DHT22;8170;48.118;11.628;2023-04-23T01:02:11;14.30;98.40
1015;DHT22;8170;48.118;11.628;2023-04-23T01:03:14;14.20;98.70
1015;DHT22;8170;48.118;11.628;2023-04-23T01:04:20;14.10;99.60
1015;DHT22;8170;48.118;11.628;2023-04-23T01:05:26;14.10;99.90
1015;DHT22;8170;48.118;11.628;2023-04-23T01:06:29;14.00;99.90
1015;DHT22;8170;48.118;11.628;2023-04-23T01:07:33;14.00;99.90
1015;DHT22;8170;48.118;11.628;2023-04-23T01:08:37;14.10;99.90
1015;DHT22;8170;48.118;11.628;2023-04-23T01:09:40;14.10;99.90
1015;DHT22;8170;48.118;11.628;2023-04-23T01:10:44;14.10;99.90
1015;DHT22;8170;48.118;11.628;2023-04-23T01:11:50;14.10;99.90
1015;DHT22;8170;48.118;11.628;2023-04-23T01:12:52;14.10;99.90
1015;DHT22;8170;48.118;11.628;2023-04-23T01:13:55;14.10;99.90
1015;DHT22;8170;48.118;11.628;2023-04-23T01:14:58;14.10;99.90
1015;DHT22;8170;48.118;11.628;2023-04-23T01:16:01;14.10;99.90
1015;DHT22;8170;48.118;11.628;2023-04-23T01:17:03;14.20;99.90
1015;DHT22;8170;48.118;11.628;2023-04-23T01:18:08;14.20;99.90
1015;DHT22;8170;48.118;11.628;2023-04-23T01:19:12;14.10;99.90
1015;DHT22;8170;48.118;11.628;2023-04-23T01:20:17;14.00;99.90
1015;DHT22;8170;48.118;11.628;2023-04-23T01:21:19;14.00;99.90
1015;DHT22;8170;48.118;11.628;2023-04-23T01:22:23;13.90;99.90
1015;DHT22;8170;48.118;11.628;2023-04-23T01:23:26;13.90;99.90
1015;DHT22;8170;48.118;11.628;2023-04-23T01:24:30;13.90;99.90
1015;DHT22;8170;48.118;11.628;2023-04-23T01:25:32;13.90;99.90
1015;DHT22;8170;48.118;11.628;2023-04-23T01:26:37;14.00;99.90
1015;DHT22;8170;48.118;11.628;2023-04-23T01:27:40;14.00;99.90
1015;DHT22;8170;48.118;11.628;2023-04-23T01:28:43;14.10;99.90
1015;DHT22;8170;48.118;11.628;2023-04-23T01:29:47;14.10;99.90
1015;DHT22;8170;48.118;11.628;2023-04-23T01:30:52;14.10;99.90
1015;DHT22;8170;48.118;11.628;2023-04-23T01:31:55;14.10;99.90
1015;DHT22;8170;48.118;11.628;2023-04-23T01:32:59;14.10;99.90
1015;DHT22;8170;48.118;11.628;2023-04-23T01:34:02;14.00;99.90
1015;DHT22;8170;48.118;11.628;2023-04-23T01:35:05;14.00;99.90
1015;DHT22;8170;48.118;11.628;2023-04-23T01:36:09;14.00;99.90
1015;DHT22;8170;48.118;11.628;2023-04-23T01:37:13;14.00;99.90
1015;DHT22;8170;48.118;11.628;2023-04-23T01:38:18;13.90;99.90
1015;DHT22;8170;48.118;11.628;2023-04-23T01:39:22;13.90;99.90
1015;DHT22;8170;48.118;11.628;2023-04-23T01:40:24;13.90;99.90
1015;DHT22;8170;48.118;11.628;2023-04-23T01:41:27;13.80;99.90
1015;DHT22;8170;48.118;11.628;2023-04-23T01:42:29;13.80;99.90
1015;DHT22;8170;48.118;11.628;2023-04-23T01:43:33;13.80;99.90
1015;DHT22;8170;48.118;11.628;2023-04-23T01:44:35;13.80;99.90
1015;DHT22;8170;48.118;11.628;2023-04-23T01:45:40;13.80;99.90
1015;DHT22;8170;48.118;11.628;2023-04-23T01:46:42;13.80;99.90
1015;DHT22;8170;48.118;11.628;2023-04-23T01:47:45;13.90;99.90
1015;DHT22;8170;48.118;11.628;2023-04-23T01:48:48;13.90;99.90
1015;DHT22;8170;48.118;11.628;2023-04-23T01:49:51;13.90;99.90
1015;DHT22;8170;48.118;11.628;2023-04-23T01:50:53;13.90;99.90
1015;DHT22;8170;48.118;11.628;2023-04-23T01:51:56;13.90;99.90
1015;DHT22;8170;48.118;11.628;2023-04-23T01:52:58;13.90;99.90
1015;DHT22;8170;48.118;11.628;2023-04-23T01:54:03;13.90;99.90
1015;DHT22;8170;48.118;11.628;2023-04-23T01:55:05;13.90;99.90
1015;DHT22;8170;48.118;11.628;2023-04-23T01:56:08;14.00;99.90
1015;DHT22;8170;48.118;11.628;2023-04-23T01:57:11;14.00;99.90
1015;DHT22;8170;48.118;11.628;2023-04-23T01:58:15;14.00;99.90
1015;DHT22;8170;48.118;11.628;2023-04-23T01:59:17;14.00;99.90
1015;DHT22;8170;48.118;11.628;2023-04-23T02:00:20;14.00;99.90
1015;DHT22;8170;48.118;11.628;2023-04-23T02:01:22;14.00;99.90
1015;DHT22;8170;48.118;11.628;2023-04-23T02:02:25;14.00;99.90
1015;DHT22;8170;48.118;11.628;2023-04-23T02:03:28;14.00;99.90
1015;DHT22;8170;48.118;11.628;2023-04-23T02:04:33;14.00;99.90
1015;DHT22;8170;48.118;11.628;2023-04-23T02:05:35;14.00;99.90
1015;DHT22;8170;48.118;11.628;2023-04-23T02:06:38;14.00;99.90
1015;DHT22;8170;48.118;11.628;2023-04-23T02:07:42;14.00;99.90
1015;DHT22;8170;48.118;11.628;2023-04-23T02:08:45;14.00;99.90
1015;DHT22;8170;48.118;11.628;2023-04-23T02:09:48;14.00;99.90
1015;DHT22;8170;48.118;11.628;2023-04-23T02:10:52;14.00;99.90
1015;DHT22;8170;48.118;11.628;2023-04-23T02:11:54;14.00;99.90
1015;DHT22;8170;48.118;11.628;2023-04-23T02:12:58;14.00;99.90
1015;DHT22;8170;48.118;11.628;2023-04-23T02:14:01;13.90;99.90
1015;DHT22;8170;48.118;11.628;2023-04-23T02:15:07;13.90;99.90
1015;DHT22;8170;48.118;11.628;2023-04-23T02:16:09;13.90;99.90
1015;DHT22;8170;48.118;11.628;2023-04-23T02:17:13;13.90;99.90
1015;DHT22;8170;48.118;11.628;2023-04-23T02:18:15;13.90;99.90
1015;DHT22;8170;48.118;11.628;2023-04-23T02:19:19;13.90;99.90
1015;DHT22;8170;48.118;11.628;2023-04-23T02:20:21;13.90;99.90
1015;DHT22;8170;48.118;11.628;2023-04-23T02:21:24;13.90;99.90
1015;DHT22;8170;48.118;11.628;2023-04-23T02:22:28;13.80;99.90
1015;DHT22;8170;48.118;11.628;2023-04-23T02:23:32;13.80;99.90
1015;DHT22;8170;48.118;11.628;2023-04-23T02:24:34;13.80;99.90
1015;DHT22;8170;48.118;11.628;2023-04-23T02:25:38;13.70;99.90
1015;DHT22;8170;48.118;11.628;2023-04-23T02:26:40;13.70;99.90
1015;DHT22;8170;48.118;11.628;2023-04-23T02:27:43;13.70;99.90
1015;DHT22;8170;48.118;11.628;2023-04-23T02:28:45;13.70;99.90
1015;DHT22;8170;48.118;11.628;2023-04-23T02:29:49;13.70;99.90
1015;DHT22;8170;48.118;11.628;2023-04-23T02:30:51;13.80;99.90
1015;DHT22;8170;48.118;11.628;2023-04-23T02:31:54;13.80;99.90
1015;DHT22;8170;48.118;11.628;2023-04-23T02:32:56;13.80;99.90
1015;DHT22;8170;48.118;11.628;2023-04-23T02:33:59;13.80;99.90
1015;DHT22;8170;48.118;11.628;2023-04-23T02:35:02;13.80;99.90
1015;DHT22;8170;48.118;11.628;2023-04-23T02:36:07;13.80;99.90
1015;DHT22;8170;48.118;11.628;2023-04-23T02:37:11;13.80;99.90
1015;DHT22;8170;48.118;11.628;2023-04-23T02:38:14;13.80;99.90
1015;DHT22;8170;48.118;11.628;2023-04-23T02:39:16;13.80;99.90
1015;DHT22;8170;48.118;11.628;2023-04-23T02:40:19;13.80;99.90
1015;DHT22;8170;48.118;11.628;2023-04-23T02:41:23;13.80;99.90
1015;DHT22;8170;48.118;11.628;2023-04-23T02:42:26;13.80;99.90
1015;DHT22;8170;48.118;11.628;2023-04-23T02:43:28;13.70;99.90
1015;DHT22;8170;48.118;11.628;2023-04-23T02:44:31;13.70;99.90
1015;DHT22;8170;48.118;11.628;2023-04-23T02:45:34;13.80;99.90
1015;DHT22;8170;48.118;11.628;2023-04-23T02:46:37;13.80;99.90
1015;DHT22;8170;48.118;11.628;2023-04-23T02:47:39;13.80;99.90
1015;DHT22;8170;48.118;11.628;2023-04-23T02:48:42;13.80;99.90
1015;DHT22;8170;48.118;11.628;2023-04-23T02:49:44;13.80;99.90
1015;DHT22;8170;48.118;11.628;2023-04-23T02:50:48;13.90;99.90
1015;DHT22;8170;48.118;11.628;2023-04-23T02:51:50;13.80;99.90
1015;DHT22;8170;48.118;11.628;2023-04-23T02:52:53;13.80;99.90
1015;DHT22;8170;48.118;11.628;2023-04-23T02:53:55;13.80;99.90
1015;DHT22;8170;48.118;11.628;2023-04-23T02:54:58;13.80;99.90
1015;DHT22;8170;48.118;11.628;2023-04-23T02:56:01;13.80;99.90
1015;DHT22;8170;48.118;11.628;2023-04-23T02:57:06;13.70;99.90
1015;DHT22;8170;48.118;11.628;2023-04-23T02:58:09;13.70;99.90
1015;DHT22;8170;48.118;11.628;2023-04-23T02:59:14;13.70;99.90
1015;DHT22;8170;48.118;11.628;2023-04-23T03:00:16;13.80;99.90
1015;DHT22;8170;48.118;11.628;2023-04-23T03:01:21;13.80;99.90
1015;DHT22;8170;48.118;11.628;2023-04-23T03:02:23;13.80;99.90
1015;DHT22;8170;48.118;11.628;2023-04-23T03:03:27;13.80;99.90
1015;DHT22;8170;48.118;11.628;2023-04-23T03:04:34;13.70;99.90
1015;DHT22;8170;48.118;11.628;2023-04-23T03:05:37;13.70;99.90
1015;DHT22;8170;48.118;11.628;2023-04-23T03:06:40;13.60;99.90
1015;DHT22;8170;48.118;11.628;2023-04-23T03:07:43;13.60;99.90
1015;DHT22;8170;48.118;11.628;2023-04-23T03:08:45;13.60;99.90
1015;DHT22;8170;48.118;11.628;2023-04-23T03:09:48;13.60;99.90
1015;DHT22;8170;48.118;11.628;2023-04-23T03:10:51;13.60;99.90
1015;DHT22;8170;48.118;11.628;2023-04-23T03:11:54;13.70;99.90
1015;DHT22;8170;48.118;11.628;2023-04-23T03:12:59;13.60;99.90
1015;DHT22;8170;48.118;11.628;2023-04-23T03:14:02;13.70;99.90
1015;DHT22;8170;48.118;11.628;2023-04-23T03:15:05;13.70;99.90
1015;DHT22;8170;48.118;11.628;2023-04-23T03:16:10;13.70;99.90
1015;DHT22;8170;48.118;11.628;2023-04-23T03:17:13;13.60;99.90
1015;DHT22;8170;48.118;11.628;2023-04-23T03:18:16;13.60;99.90
1015;DHT22;8170;48.118;11.628;2023-04-23T03:19:20;13.60;99.90
1015;DHT22;8170;48.118;11.628;2023-04-23T03:20:23;13.60;99.90
1015;DHT22;8170;48.118;11.628;2023-04-23T03:21:25;13.70;99.90
1015;DHT22;8170;48.118;11.628;2023-04-23T03:22:28;13.70;99.90
1015;DHT22;8170;48.118;11.628;2023-04-23T03:23:30;13.70;99.90
1015;DHT22;8170;48.118;11.628;2023-04-23T03:24:33;13.70;99.90
1015;DHT22;8170;48.118;11.628;2023-04-23T03:25:36;13.70;99.90
1015;DHT22;8170;48.118;11.628;2023-04-23T03:26:39;13.70;99.90
1015;DHT22;8170;48.118;11.628;2023-04-23T03:27:41;13.70;99.90
1015;DHT22;8170;48.118;11.628;2023-04-23T03:28:46;13.70;99.90
1015;DHT22;8170;48.118;11.628;2023-04-23T03:29:48;13.70;99.90
1015;DHT22;8170;48.118;11.628;2023-04-23T03:30:51;13.70;99.90
1015;DHT22;8170;48.118;11.628;2023-04-23T03:31:54;13.60;99.90
1015;DHT22;8170;48.118;11.628;2023-04-23T03:32:57;13.60;99.90
1015;DHT22;8170;48.118;11.628;2023-04-23T03:34:00;13.60;99.90
1015;DHT22;8170;48.118;11.628;2023-04-23T03:35:07;13.60;99.90
1015;DHT22;8170;48.118;11.628;2023-04-23T03:36:12;13.60;99.90
1015;DHT22;8170;48.118;11.628;2023-04-23T03:37:16;13.60;99.90
1015;DHT22;8170;48.118;11.628;2023-04-23T03:38:19;13.60;99.90
1015;DHT22;8170;48.118;11.628;2023-04-23T03:39:24;13.60;99.90
1015;DHT22;8170;48.118;11.628;2023-04-23T03:40:28;13.60;99.90
1015;DHT22;8170;48.118;11.628;2023-04-23T03:41:35;13.60;99.90
1015;DHT22;8170;48.118;11.628;2023-04-23T03:42:37;13.60;99.90
1015;DHT22;8170;48.118;11.628;2023-04-23T03:43:41;13.50;99.90
1015;DHT22;8170;48.118;11.628;2023-04-23T03:45:09;13.50;99.90
1015;DHT22;8170;48.118;11.628;2023-04-23T03:46:12;13.50;99.90
1015;DHT22;8170;48.118;11.628;2023-04-23T03:47:16;13.50;99.90
1015;DHT22;8170;48.118;11.628;2023-04-23T03:48:19;13.60;99.90
1015;DHT22;8170;48.118;11.628;2023-04-23T03:49:23;13.60;99.90
1015;DHT22;8170;48.118;11.628;2023-04-23T03:50:26;13.50;99.90
1015;DHT22;8170;48.118;11.628;2023-04-23T03:51:41;13.50;99.90
1015;DHT22;8170;48.118;11.628;2023-04-23T03:52:44;13.60;99.90
1015;DHT22;8170;48.118;11.628;2023-04-23T03:53:54;13.60;99.90
1015;DHT22;8170;48.118;11.628;2023-04-23T03:55:04;13.60;99.90
1015;DHT22;8170;48.118;11.628;2023-04-23T03:56:12;13.60;99.90
1015;DHT22;8170;48.118;11.628;2023-04-23T03:57:24;13.60;99.90
1015;DHT22;8170;48.118;11.628;2023-04-23T03:58:38;13.60;99.90
1015;DHT22;8170;48.118;11.628;2023-04-23T03:59:41;13.50;99.90
1015;DHT22;8170;48.118;11.628;2023-04-23T04:00:44;13.50;99.90
1015;DHT22;8170;48.118;11.628;2023-04-23T04:01:48;13.50;99.90
1015;DHT22;8170;48.118;11.628;2023-04-23T04:02:51;13.40;99.90
1015;DHT22;8170;48.118;11.628;2023-04-23T04:03:56;13.40;99.90
1015;DHT22;8170;48.118;11.628;2023-04-23T04:04:59;13.40;99.90
1015;DHT22;8170;48.118;11.628;2023-04-23T04:06:02;13.30;99.90
1015;DHT22;8170;48.118;11.628;2023-04-23T04:07:05;13.30;99.90
1015;DHT22;8170;48.118;11.628;2023-04-23T04:08:09;13.30;99.90
1015;DHT22;8170;48.118;11.628;2023-04-23T04:09:12;13.30;99.90
1015;DHT22;8170;48.118;11.628;2023-04-23T04:10:14;13.30;99.90
1015;DHT22;8170;48.118;11.628;2023-04-23T04:11:17;13.30;99.90
1015;DHT22;8170;48.118;11.628;2023-04-23T04:12:19;13.30;99.90
1015;DHT22;8170;48.118;11.628;2023-04-23T04:13:22;13.30;99.90
1015;DHT22;8170;48.118;11.628;2023-04-23T04:14:24;13.40;99.90
1015;DHT22;8170;48.118;11.628;2023-04-23T04:15:27;13.40;99.90
1015;DHT22;8170;48.118;11.628;2023-04-23T04:16:30;13.40;99.90
1015;DHT22;8170;48.118;11.628;2023-04-23T04:17:34;13.50;99.90
1015;DHT22;8170;48.118;11.628;2023-04-23T04:18:37;13.50;99.90
1015;DHT22;8170;48.118;11.628;2023-04-23T04:19:40;13.50;99.90
1015;DHT22;8170;48.118;11.628;2023-04-23T04:20:43;13.50;99.90
1015;DHT22;8170;48.118;11.628;2023-04-23T04:21:46;13.50;99.90
1015;DHT22;8170;48.118;11.628;2023-04-23T04:22:49;13.50;99.90
1015;DHT22;8170;48.118;11.628;2023-04-23T04:23:51;13.50;99.90
1015;DHT22;8170;48.118;11.628;2023-04-23T04:24:55;13.50;99.90
1015;DHT22;8170;48.118;11.628;2023-04-23T04:25:58;13.50;99.90
1015;DHT22;8170;48.118;11.628;2023-04-23T04:27:01;13.50;99.90
1015;DHT22;8170;48.118;11.628;2023-04-23T04:28:03;13.50;99.90
1015;DHT22;8170;48.118;11.628;2023-04-23T04:29:08;13.50;99.90
1015;DHT22;8170;48.118;11.628;2023-04-23T04:30:11;13.40;99.90
1015;DHT22;8170;48.118;11.628;2023-04-23T04:31:15;13.50;99.90
1015;DHT22;8170;48.118;11.628;2023-04-23T04:32:18;13.40;99.90
1015;DHT22;8170;48.118;11.628;2023-04-23T04:33:23;13.50;99.90
1015;DHT22;8170;48.118;11.628;2023-04-23T04:34:26;13.50;99.90
1015;DHT22;8170;48.118;11.628;2023-04-23T04:35:29;13.50;99.90
1015;DHT22;8170;48.118;11.628;2023-04-23T04:36:32;13.50;99.90
1015;DHT22;8170;48.118;11.628;2023-04-23T04:37:36;13.50;99.90
1015;DHT22;8170;48.118;11.628;2023-04-23T04:38:38;13.50;99.90
1015;DHT22;8170;48.118;11.628;2023-04-23T04:39:42;13.50;99.90
1015;DHT22;8170;48.118;11.628;2023-04-23T04:40:44;13.50;99.90
1015;DHT22;8170;48.118;11.628;2023-04-23T04:41:49;13.50;99.90
1015;DHT22;8170;48.118;11.628;2023-04-23T04:42:51;13.40;99.90
1015;DHT22;8170;48.118;11.628;2023-04-23T04:43:55;13.40;99.90
1015;DHT22;8170;48.118;11.628;2023-04-23T04:44:59;13.40;99.90
1015;DHT22;8170;48.118;11.628;2023-04-23T04:46:02;13.30;99.90
1015;DHT22;8170;48.118;11.628;2023-04-23T04:47:07;13.30;99.90
1015;DHT22;8170;48.118;11.628;2023-04-23T04:48:13;13.30;99.90
1015;DHT22;8170;48.118;11.628;2023-04-23T04:49:15;13.40;99.90
1015;DHT22;8170;48.118;11.628;2023-04-23T04:50:20;13.40;99.90
1015;DHT22;8170;48.118;11.628;2023-04-23T04:51:22;13.40;99.90
1015;DHT22;8170;48.118;11.628;2023-04-23T04:52:25;13.30;99.90
1015;DHT22;8170;48.118;11.628;2023-04-23T04:53:27;13.20;99.90
1015;DHT22;8170;48.118;11.628;2023-04-23T04:54:30;13.20;99.90
1015;DHT22;8170;48.118;11.628;2023-04-23T04:55:32;13.10;99.90
1015;DHT22;8170;48.118;11.628;2023-04-23T04:56:35;13.10;99.90
1015;DHT22;8170;48.118;11.628;2023-04-23T04:57:38;12.90;99.90
1015;DHT22;8170;48.118;11.628;2023-04-23T04:58:40;12.80;99.90
1015;DHT22;8170;48.118;11.628;2023-04-23T04:59:44;12.80;99.90
1015;DHT22;8170;48.118;11.628;2023-04-23T05:00:47;12.80;99.90
1015;DHT22;8170;48.118;11.628;2023-04-23T05:01:52;12.80;99.90
1015;DHT22;8170;48.118;11.628;2023-04-23T05:02:56;12.80;99.90
1015;DHT22;8170;48.118;11.628;2023-04-23T05:04:00;12.70;99.90
1015;DHT22;8170;48.118;11.628;2023-04-23T05:05:03;12.60;99.90
1015;DHT22;8170;48.118;11.628;2023-04-23T05:06:06;12.70;99.90
1015;DHT22;8170;48.118;11.628;2023-04-23T05:07:09;12.60;99.90
1015;DHT22;8170;48.118;11.628;2023-04-23T05:08:11;12.50;99.90
1015;DHT22;8170;48.118;11.628;2023-04-23T05:09:17;12.50;99.90
1015;DHT22;8170;48.118;11.628;2023-04-23T05:10:20;12.50;99.90
1015;DHT22;8170;48.118;11.628;2023-04-23T05:11:23;12.50;99.90
1015;DHT22;8170;48.118;11.628;2023-04-23T05:12:28;12.50;99.90
1015;DHT22;8170;48.118;11.628;2023-04-23T05:13:31;12.50;99.90
1015;DHT22;8170;48.118;11.628;2023-04-23T05:14:33;12.60;99.90
1015;DHT22;8170;48.118;11.628;2023-04-23T05:15:36;12.50;99.90
1015;DHT22;8170;48.118;11.628;2023-04-23T05:16:38;12.50;99.90
1015;DHT22;8170;48.118;11.628;2023-04-23T05:17:42;12.60;99.90
1015;DHT22;8170;48.118;11.628;2023-04-23T05:18:44;12.70;99.90
1015;DHT22;8170;48.118;11.628;2023-04-23T05:19:49;12.60;99.90
1015;DHT22;8170;48.118;11.628;2023-04-23T05:20:52;12.50;99.90
1015;DHT22;8170;48.118;11.628;2023-04-23T05:21:55;12.50;99.90
1015;DHT22;8170;48.118;11.628;2023-04-23T05:22:57;12.50;99.90
1015;DHT22;8170;48.118;11.628;2023-04-23T05:24:00;12.50;99.90
1015;DHT22;8170;48.118;11.628;2023-04-23T05:25:03;12.50;99.90
1015;DHT22;8170;48.118;11.628;2023-04-23T05:26:06;12.60;99.90
1015;DHT22;8170;48.118;11.628;2023-04-23T05:27:08;12.60;99.90
1015;DHT22;8170;48.118;11.628;2023-04-23T05:28:11;12.60;99.90
1015;DHT22;8170;48.118;11.628;2023-04-23T05:29:14;12.60;99.90
1015;DHT22;8170;48.118;11.628;2023-04-23T05:30:20;12.60;99.90
1015;DHT22;8170;48.118;11.628;2023-04-23T05:31:22;12.60;99.90
1015;DHT22;8170;48.118;11.628;2023-04-23T05:32:25;12.50;99.90
1015;DHT22;8170;48.118;11.628;2023-04-23T05:33:27;12.50;99.90
1015;DHT22;8170;48.118;11.628;2023-04-23T05:34:38;12.50;99.90
1015;DHT22;8170;48.118;11.628;2023-04-23T05:35:42;12.50;99.90
1015;DHT22;8170;48.118;11.628;2023-04-23T05:36:45;12.50;99.90
1015;DHT22;8170;48.118;11.628;2023-04-23T05:37:48;12.50;99.90
1015;DHT22;8170;48.118;11.628;2023-04-23T05:38:50;12.50;99.90
1015;DHT22;8170;48.118;11.628;2023-04-23T05:39:53;12.50;99.90
1015;DHT22;8170;48.118;11.628;2023-04-23T05:40:55;12.60;99.90
1015;DHT22;8170;48.118;11.628;2023-04-23T05:41:58;12.70;99.90
1015;DHT22;8170;48.118;11.628;2023-04-23T05:43:00;12.70;99.90
1015;DHT22;8170;48.118;11.628;2023-04-23T05:44:03;12.70;99.90
1015;DHT22;8170;48.118;11.628;2023-04-23T05:45:07;12.60;99.90
1015;DHT22;8170;48.118;11.628;2023-04-23T05:46:10;12.60;99.90
1015;DHT22;8170;48.118;11.628;2023-04-23T05:47:13;12.60;99.90
1015;DHT22;8170;48.118;11.628;2023-04-23T05:48:16;12.70;99.90
1015;DHT22;8170;48.118;11.628;2023-04-23T05:49:18;12.70;99.90
1015;DHT22;8170;48.118;11.628;2023-04-23T05:50:21;12.70;99.90
1015;DHT22;8170;48.118;11.628;2023-04-23T05:51:25;12.70;99.90
1015;DHT22;8170;48.118;11.628;2023-04-23T05:52:28;12.70;99.90
1015;DHT22;8170;48.118;11.628;2023-04-23T05:53:32;12.70;99.90
1015;DHT22;8170;48.118;11.628;2023-04-23T05:54:35;12.70;99.90
1015;DHT22;8170;48.118;11.628;2023-04-23T05:55:37;12.80;99.90
1015;DHT22;8170;48.118;11.628;2023-04-23T05:56:40;12.80;99.90
1015;DHT22;8170;48.118;11.628;2023-04-23T05:57:43;12.70;99.90
1015;DHT22;8170;48.118;11.628;2023-04-23T05:58:46;12.60;99.90
1015;DHT22;8170;48.118;11.628;2023-04-23T05:59:48;12.70;99.90
1015;DHT22;8170;48.118;11.628;2023-04-23T06:00:51;12.60;99.90
1015;DHT22;8170;48.118;11.628;2023-04-23T06:01:54;12.50;99.90
1015;DHT22;8170;48.118;11.628;2023-04-23T06:02:57;12.60;99.90
1015;DHT22;8170;48.118;11.628;2023-04-23T06:04:00;12.60;99.90
1015;DHT22;8170;48.118;11.628;2023-04-23T06:05:03;12.70;99.90
1015;DHT22;8170;48.118;11.628;2023-04-23T06:06:07;12.70;99.90
1015;DHT22;8170;48.118;11.628;2023-04-23T06:07:11;12.70;99.90
1015;DHT22;8170;48.118;11.628;2023-04-23T06:08:13;12.70;99.90
1015;DHT22;8170;48.118;11.628;2023-04-23T06:09:16;12.70;99.90
1015;DHT22;8170;48.118;11.628;2023-04-23T06:10:18;12.60;99.90
1015;DHT22;8170;48.118;11.628;2023-04-23T06:11:21;12.70;99.90
1015;DHT22;8170;48.118;11.628;2023-04-23T06:12:23;12.70;99.90
1015;DHT22;8170;48.118;11.628;2023-04-23T06:13:27;12.70;99.90
1015;DHT22;8170;48.118;11.628;2023-04-23T06:14:29;12.70;99.90
1015;DHT22;8170;48.118;11.628;2023-04-23T06:15:32;12.70;99.90
1015;DHT22;8170;48.118;11.628;2023-04-23T06:16:34;12.70;99.90
1015;DHT22;8170;48.118;11.628;2023-04-23T06:17:37;12.80;99.90
1015;DHT22;8170;48.118;11.628;2023-04-23T06:18:39;12.70;99.90
1015;DHT22;8170;48.118;11.628;2023-04-23T06:19:43;12.60;99.90
1015;DHT22;8170;48.118;11.628;2023-04-23T06:20:45;12.60;99.90
1015;DHT22;8170;48.118;11.628;2023-04-23T06:21:50;12.60;99.90
1015;DHT22;8170;48.118;11.628;2023-04-23T06:22:53;12.50;99.90
1015;DHT22;8170;48.118;11.628;2023-04-23T06:23:57;12.50;99.90
1015;DHT22;8170;48.118;11.628;2023-04-23T06:24:59;12.60;99.90
1015;DHT22;8170;48.118;11.628;2023-04-23T06:26:02;12.60;99.90
1015;DHT22;8170;48.118;11.628;2023-04-23T06:27:05;12.60;99.90
1015;DHT22;8170;48.118;11.628;2023-04-23T06:28:11;12.50;99.90
1015;DHT22;8170;48.118;11.628;2023-04-23T06:29:26;12.50;99.90
1015;DHT22;8170;48.118;11.628;2023-04-23T06:30:35;12.60;99.90
1015;DHT22;8170;48.118;11.628;2023-04-23T06:31:37;12.50;99.90
1015;DHT22;8170;48.118;11.628;2023-04-23T06:32:42;12.60;99.90
1015;DHT22;8170;48.118;11.628;2023-04-23T06:33:44;12.50;99.90
1015;DHT22;8170;48.118;11.628;2023-04-23T06:34:47;12.50;99.90
1015;DHT22;8170;48.118;11.628;2023-04-23T06:36:02;12.60;99.90
1015;DHT22;8170;48.118;11.628;2023-04-23T06:37:05;12.50;99.90
1015;DHT22;8170;48.118;11.628;2023-04-23T06:38:08;12.40;99.90
1015;DHT22;8170;48.118;11.628;2023-04-23T06:39:11;12.50;99.90
1015;DHT22;8170;48.118;11.628;2023-04-23T06:40:13;12.50;99.90
1015;DHT22;8170;48.118;11.628;2023-04-23T06:41:17;12.60;99.90
1015;DHT22;8170;48.118;11.628;2023-04-23T06:42:19;12.50;99.90
1015;DHT22;8170;48.118;11.628;2023-04-23T06:43:29;12.60;99.90
1015;DHT22;8170;48.118;11.628;2023-04-23T06:44:52;12.60;99.90
1015;DHT22;8170;48.118;11.628;2023-04-23T06:45:55;12.70;99.90
1015;DHT22;8170;48.118;11.628;2023-04-23T06:46:57;12.70;99.90
1015;DHT22;8170;48.118;11.628;2023-04-23T06:48:01;12.70;99.90